Time;durP1;ratioP1;P1;durP2;ratioP2;P2;SDS_P1;SDS_P2;PMS_P1;PMS_P2;Temp;Humidity;BMP_temperature;BMP_pressure;BME280_temperature;BME280_humidity;BME280_pressure;Samples;Min_cycle;Max_cycle;Signal;HPM_P1;HPM_P2
2022/05/11 00:02:37;;;;;;;5.00;3.30;;;23.80;52.20;;;;;;220589;1268;22531;-42
2022/05/11 00:07:44;;;;;;;5.80;3.60;;;23.80;52.20;;;;;;220298;1268;25353;-41
2022/05/11 00:12:49;;;;;;;7.90;3.10;;;23.80;52.60;;;;;;220618;1268;22549;-44
2022/05/11 00:17:55;;;;;;;4.20;3.40;;;23.80;52.30;;;;;;220228;1268;22561;-40
2022/05/11 00:23:01;;;;;;;4.90;3.30;;;23.80;52.40;;;;;;220197;1268;24973;-40
2022/05/11 00:28:05;;;;;;;6.10;3.60;;;23.80;52.50;;;;;;220207;1268;25034;-40
2022/05/11 00:33:12;;;;;;;5.10;3.20;;;23.80;52.50;;;;;;220420;1268;23908;-42
2022/05/11 00:38:18;;;;;;;8.00;3.60;;;23.70;53.00;;;;;;220277;1268;22805;-41
2022/05/11 00:43:35;;;;;;;5.80;3.00;;;23.70;53.00;;;;;;220274;1268;22555;-39
2022/05/11 00:54:04;;;;;;;5.00;3.20;;;23.70;52.70;;;;;;220118;1268;22635;-39
2022/05/11 00:59:16;;;;;;;4.80;3.00;;;23.70;52.60;;;;;;220230;1268;25316;-42
2022/05/11 01:04:21;;;;;;;5.30;3.40;;;23.70;52.50;;;;;;220187;1268;22549;-45
2022/05/11 01:09:25;;;;;;;5.50;3.30;;;23.70;52.40;;;;;;220297;1268;22564;-39
2022/05/11 01:14:32;;;;;;;6.20;3.50;;;23.70;52.80;;;;;;220131;1268;22563;-46
2022/05/11 01:19:40;;;;;;;4.70;3.20;;;23.70;52.80;;;;;;220320;1268;22540;-41
2022/05/11 01:24:46;;;;;;;4.50;3.10;;;23.70;52.50;;;;;;220698;1268;23037;-41
2022/05/11 01:29:51;;;;;;;4.50;2.90;;;23.60;52.40;;;;;;220650;1268;24448;-42
2022/05/11 01:35:07;;;;;;;7.00;3.30;;;23.60;52.90;;;;;;220294;1268;25416;-40
2022/05/11 01:40:11;;;;;;;5.60;3.50;;;23.60;53.10;;;;;;220435;1268;22573;-43
2022/05/11 01:45:18;;;;;;;5.20;3.20;;;23.60;52.60;;;;;;220293;1268;22572;-40
2022/05/11 01:50:25;;;;;;;5.60;3.30;;;23.60;52.40;;;;;;219857;1271;25471;-46
2022/05/11 01:55:33;;;;;;;5.20;3.00;;;23.60;52.70;;;;;;220788;1268;25452;-42
2022/05/11 02:00:40;;;;;;;4.90;3.00;;;23.60;52.70;;;;;;220744;1268;22598;-43
2022/05/11 02:11:10;;;;;;;5.30;3.00;;;23.50;53.00;;;;;;220498;1268;24059;-41
2022/05/11 02:16:14;;;;;;;4.10;2.40;;;23.60;53.00;;;;;;220471;1267;25391;-42
2022/05/11 02:21:22;;;;;;;5.80;2.80;;;23.50;52.50;;;;;;220393;1270;22797;-42
2022/05/11 02:26:26;;;;;;;6.00;3.40;;;23.50;52.90;;;;;;220559;1268;22922;-42
2022/05/11 02:31:29;;;;;;;4.70;3.30;;;23.50;53.10;;;;;;220214;1268;22576;-41
2022/05/11 02:36:34;;;;;;;4.70;3.30;;;23.50;53.10;;;;;;220329;1268;24412;-41
2022/05/11 02:41:38;;;;;;;5.00;3.10;;;23.50;53.20;;;;;;220209;1268;24246;-42
2022/05/11 02:46:41;;;;;;;5.10;3.10;;;23.50;54.00;;;;;;220120;1268;25503;-41
2022/05/11 02:51:45;;;;;;;4.90;3.70;;;23.50;53.20;;;;;;220143;1268;24303;-41
2022/05/11 02:56:48;;;;;;;5.50;3.20;;;23.50;53.30;;;;;;220178;1268;25550;-41
2022/05/11 03:01:52;;;;;;;3.90;2.60;;;23.50;53.20;;;;;;220140;1268;22616;-43
2022/05/11 03:06:56;;;;;;;6.60;3.20;;;23.40;53.50;;;;;;220178;1270;24320;-41
2022/05/11 03:12:00;;;;;;;3.90;2.80;;;23.40;53.50;;;;;;220160;1268;23952;-40
2022/05/11 03:17:04;;;;;;;4.50;2.80;;;23.50;54.00;;;;;;220184;1268;22525;-45
2022/05/11 03:22:08;;;;;;;5.90;3.10;;;23.50;53.70;;;;;;220488;1268;26501;-41
2022/05/11 03:27:11;;;;;;;4.70;3.00;;;23.40;53.30;;;;;;220636;1268;25300;-41
2022/05/11 03:37:38;;;;;;;4.60;3.20;;;23.40;53.70;;;;;;220175;1268;24368;-40
2022/05/11 03:42:42;;;;;;;6.00;3.40;;;23.40;53.80;;;;;;220390;1267;25398;-40
2022/05/11 03:47:47;;;;;;;4.30;3.00;;;23.40;54.10;;;;;;220574;1268;26455;-40
2022/05/11 03:52:53;;;;;;;4.50;3.10;;;23.40;54.30;;;;;;220239;1268;24289;-42
2022/05/11 03:57:56;;;;;;;4.30;3.20;;;23.30;53.70;;;;;;220349;1268;24372;-40
2022/05/11 04:03:00;;;;;;;5.20;3.00;;;23.40;53.80;;;;;;220279;1268;24352;-40
2022/05/11 04:08:05;;;;;;;5.10;3.40;;;23.40;53.80;;;;;;219875;1270;22538;-42
2022/05/11 04:13:08;;;;;;;4.60;3.40;;;23.30;53.80;;;;;;220381;1268;25697;-42
2022/05/11 04:18:12;;;;;;;4.90;3.20;;;23.30;53.80;;;;;;220221;1269;25396;-41
2022/05/11 04:23:17;;;;;;;3.90;2.90;;;23.30;54.10;;;;;;220329;1268;22759;-41
2022/05/11 04:28:21;;;;;;;4.50;3.00;;;23.30;53.80;;;;;;220097;1268;22639;-41
2022/05/11 04:33:24;;;;;;;5.60;3.10;;;23.30;54.00;;;;;;219990;1268;22731;-41
2022/05/11 04:38:31;;;;;;;6.30;3.10;;;23.30;53.90;;;;;;219944;1268;22616;-44
2022/05/11 04:43:35;;;;;;;6.50;4.10;;;23.30;53.90;;;;;;220339;1268;22773;-40
2022/05/11 04:48:38;;;;;;;5.50;3.10;;;23.30;53.90;;;;;;220100;1268;25274;-42
2022/05/11 04:53:42;;;;;;;4.90;2.90;;;23.30;53.90;;;;;;220164;1268;26820;-40
2022/05/11 04:58:46;;;;;;;4.80;3.30;;;23.30;54.50;;;;;;220203;1268;26615;-40
2022/05/11 05:03:53;;;;;;;5.20;3.00;;;23.30;54.50;;;;;;220585;1268;25347;-42
2022/05/11 05:08:57;;;;;;;4.80;2.80;;;23.30;54.30;;;;;;220062;1268;24380;-41
2022/05/11 05:14:05;;;;;;;5.70;3.10;;;23.30;54.30;;;;;;220514;1268;25469;-42
2022/05/11 05:19:09;;;;;;;5.00;2.90;;;23.30;54.00;;;;;;220322;1270;22731;-41
2022/05/11 05:24:13;;;;;;;5.50;3.20;;;23.30;54.30;;;;;;220291;1267;22526;-42
2022/05/11 05:34:38;;;;;;;5.30;3.20;;;23.30;54.10;;;;;;220502;1270;26982;-41
2022/05/11 05:39:43;;;;;;;5.80;3.40;;;23.40;54.20;;;;;;220396;1270;22582;-41
2022/05/11 05:44:47;;;;;;;4.60;3.00;;;23.30;54.20;;;;;;220521;1268;22632;-41
2022/05/11 05:49:51;;;;;;;4.80;3.00;;;23.40;54.30;;;;;;220227;1269;22681;-42
2022/05/11 05:54:56;;;;;;;4.80;2.90;;;23.30;54.60;;;;;;220179;1269;22931;-41
2022/05/11 06:00:02;;;;;;;4.60;3.40;;;23.40;55.30;;;;;;220297;1268;22589;-40
2022/05/11 06:05:08;;;;;;;5.10;3.20;;;23.50;54.90;;;;;;220588;1268;24307;-39
2022/05/11 06:10:13;;;;;;;8.40;3.20;;;23.50;54.80;;;;;;219964;1270;24218;-40
2022/05/11 06:15:16;;;;;;;5.70;3.10;;;23.50;55.60;;;;;;220541;1268;22745;-39
2022/05/11 06:20:20;;;;;;;10.00;3.30;;;23.50;55.90;;;;;;219881;1268;22545;-38
2022/05/11 06:25:24;;;;;;;11.50;2.90;;;23.60;56.00;;;;;;219989;1270;22528;-41
2022/05/11 06:30:28;;;;;;;10.40;4.00;;;23.60;56.60;;;;;;220225;1268;22544;-38
2022/05/11 06:35:32;;;;;;;9.60;3.70;;;23.70;56.40;;;;;;220535;1268;22793;-40
2022/05/11 06:40:37;;;;;;;13.60;4.60;;;23.70;57.00;;;;;;220043;1268;22556;-39
2022/05/11 06:45:41;;;;;;;8.30;4.50;;;23.70;57.30;;;;;;220100;1268;24059;-50
2022/05/11 06:50:44;;;;;;;11.60;4.50;;;23.80;56.80;;;;;;220112;1267;25356;-40
2022/05/11 07:01:10;;;;;;;15.50;5.10;;;23.90;56.50;;;;;;219978;1268;25590;-38
2022/05/11 07:06:14;;;;;;;12.90;4.20;;;23.90;55.80;;;;;;220336;1268;22899;-39
2022/05/11 07:16:40;;;;;;;6.40;3.80;;;23.90;54.30;;;;;;220218;1270;22614;-41
2022/05/11 07:21:43;;;;;;;7.80;4.20;;;23.90;54.30;;;;;;219934;1269;294392;-42
2022/05/11 07:26:54;;;;;;;8.20;4.10;;;23.90;53.80;;;;;;220234;1268;22547;-40
2022/05/11 07:31:58;;;;;;;6.70;4.00;;;24.00;52.80;;;;;;220402;1267;22486;-41
2022/05/11 07:37:08;;;;;;;8.20;4.10;;;24.00;53.40;;;;;;219979;1270;24310;-41
2022/05/11 07:42:12;;;;;;;8.80;4.20;;;24.00;53.00;;;;;;220146;1268;22525;-40
2022/05/11 07:47:16;;;;;;;6.40;3.90;;;24.10;53.00;;;;;;219852;1268;22631;-40
2022/05/11 07:52:20;;;;;;;7.00;4.00;;;24.10;53.40;;;;;;220127;1268;22543;-42
2022/05/11 08:02:52;;;;;;;7.40;4.30;;;24.10;53.00;;;;;;220000;1268;22610;-44
2022/05/11 08:07:58;;;;;;;7.00;4.00;;;24.10;53.10;;;;;;220053;1269;24257;-41
2022/05/11 08:13:13;;;;;;;9.50;4.00;;;24.20;53.10;;;;;;220251;1267;22604;-42
2022/05/11 08:18:29;;;;;;;8.80;4.00;;;24.20;52.80;;;;;;219956;1270;24961;-43
2022/05/11 08:23:33;;;;;;;15.60;4.20;;;24.20;53.10;;;;;;220118;1270;22533;-42
2022/05/11 08:28:37;;;;;;;8.10;4.10;;;24.30;52.50;;;;;;219557;1268;24212;-42
2022/05/11 08:33:42;;;;;;;6.00;4.10;;;24.30;52.10;;;;;;219637;1270;22699;-43
2022/05/11 08:39:11;;;;;;;5.60;4.00;;;24.40;52.40;;;;;;219736;1268;24307;-43
2022/05/11 08:44:19;;;;;;;5.60;3.90;;;24.40;52.50;;;;;;219834;1270;24231;-43
2022/05/11 08:49:54;;;;;;;7.60;3.80;;;24.40;52.70;;;;;;219754;1268;22704;-43
2022/05/11 08:55:25;;;;;;;7.90;4.10;;;24.40;52.90;;;;;;220070;1268;23074;-46
2022/05/11 09:00:30;;;;;;;8.20;4.20;;;24.50;52.10;;;;;;220219;1268;22537;-44
2022/05/11 09:05:33;;;;;;;5.70;4.30;;;24.50;52.20;;;;;;219779;1268;22554;-44
2022/05/11 09:10:39;;;;;;;8.20;4.30;;;24.50;52.00;;;;;;220047;1268;25254;-42
2022/05/11 09:15:59;;;;;;;6.50;3.80;;;24.50;52.50;;;;;;219927;1270;24302;-43
2022/05/11 09:21:13;;;;;;;7.20;4.30;;;24.50;52.00;;;;;;220179;1269;22560;-43
2022/05/11 09:26:38;;;;;;;6.60;4.30;;;24.60;51.80;;;;;;220380;1269;22555;-44
2022/05/11 09:31:44;;;;;;;5.30;3.90;;;24.70;50.80;;;;;;220132;1270;25294;-44
2022/05/11 09:37:22;;;;;;;6.90;4.20;;;24.80;50.70;;;;;;220381;1270;23911;-43
2022/05/11 09:42:30;;;;;;;6.80;3.90;;;24.80;50.60;;;;;;220043;1269;22554;-42
2022/05/11 09:47:35;;;;;;;7.20;4.00;;;24.80;50.20;;;;;;220095;1270;22553;-44
2022/05/11 09:52:39;;;;;;;6.50;4.60;;;24.80;49.90;;;;;;220220;1270;25245;-43
2022/05/11 09:57:54;;;;;;;5.20;4.20;;;24.90;50.30;;;;;;220307;1270;25403;-45
2022/05/11 10:03:06;;;;;;;4.80;4.10;;;24.90;50.90;;;;;;220164;1270;22555;-48
2022/05/11 10:08:28;;;;;;;5.20;3.70;;;24.90;49.90;;;;;;219866;1270;22549;-42
2022/05/11 10:13:44;;;;;;;6.90;3.90;;;25.00;49.50;;;;;;220240;1270;22662;-43
2022/05/11 10:24:24;;;;;;;7.40;4.60;;;25.10;49.60;;;;;;220135;1270;22541;-43
2022/05/11 10:29:33;;;;;;;7.30;4.10;;;25.10;49.00;;;;;;219999;1270;22541;-45
2022/05/11 10:34:46;;;;;;;7.00;3.80;;;25.20;48.40;;;;;;220035;1270;23014;-43
2022/05/11 10:40:29;;;;;;;7.20;3.90;;;25.30;47.90;;;;;;220062;1270;25472;-43
2022/05/11 10:46:06;;;;;;;5.90;4.10;;;25.30;48.10;;;;;;219197;1270;22568;-46
2022/05/11 10:51:20;;;;;;;5.70;4.30;;;25.30;47.20;;;;;;220248;1270;24366;-42
2022/05/11 10:56:44;;;;;;;5.10;3.90;;;25.30;48.00;;;;;;220363;1270;24106;-40
2022/05/11 11:02:20;;;;;;;5.80;4.40;;;25.20;48.80;;;;;;220222;1270;22580;-45
2022/05/11 11:07:31;;;;;;;7.30;4.50;;;25.10;48.80;;;;;;220202;1270;22544;-42
2022/05/11 11:12:39;;;;;;;;;;;25.10;48.90;;;;;;220292;1270;22521;-42
2022/05/11 11:17:46;;;;;;;6.90;4.10;;;25.10;49.20;;;;;;219864;1270;22571;-46
2022/05/11 11:23:14;;;;;;;7.30;4.40;;;25.20;48.80;;;;;;220229;1267;25148;-42
2022/05/11 11:28:23;;;;;;;7.20;4.20;;;25.20;48.70;;;;;;220405;1268;22554;-41
2022/05/11 11:33:33;;;;;;;4.80;4.00;;;25.20;49.10;;;;;;220607;1267;24422;-44
2022/05/11 11:38:36;;;;;;;9.00;4.40;;;25.20;49.30;;;;;;220436;1269;24428;-45
2022/05/11 11:43:59;;;;;;;6.00;4.50;;;25.30;48.30;;;;;;220348;1270;22559;-41
2022/05/11 11:49:27;;;;;;;6.00;4.50;;;25.30;48.80;;;;;;220221;1270;22661;-44
2022/05/11 11:54:37;;;;;;;7.70;4.40;;;25.30;49.10;;;;;;220301;1270;22549;-42
2022/05/11 11:59:51;;;;;;;8.90;5.00;;;25.50;48.00;;;;;;220569;1270;22741;-41
2022/05/11 12:05:06;;;;;;;8.90;4.70;;;25.60;47.90;;;;;;220165;1270;25355;-46
2022/05/11 12:15:39;;;;;;;9.50;4.50;;;25.70;46.60;;;;;;220428;1270;24271;-43
2022/05/11 12:20:43;;;;;;;7.40;4.30;;;25.70;46.80;;;;;;220492;1270;25324;-45
2022/05/11 12:26:01;;;;;;;11.70;5.30;;;25.70;48.00;;;;;;222334;1270;22430;-45
2022/05/11 12:31:25;;;;;;;5.60;4.70;;;25.70;48.30;;;;;;220510;1270;22590;-47
2022/05/11 12:36:35;;;;;;;10.80;5.00;;;25.90;47.40;;;;;;219860;1270;24486;-43
2022/05/11 12:41:43;;;;;;;6.30;4.60;;;26.00;46.60;;;;;;220205;1270;25602;-44
2022/05/11 12:46:52;;;;;;;7.60;4.00;;;26.10;46.20;;;;;;219977;1268;22694;-46
2022/05/11 12:52:03;;;;;;;13.90;4.00;;;26.10;45.80;;;;;;219702;1270;22537;-47
2022/05/11 12:57:17;;;;;;;12.10;4.10;;;26.10;46.20;;;;;;220094;1267;22727;-44
2022/05/11 13:02:26;;;;;;;6.80;4.00;;;26.20;45.40;;;;;;219825;1270;22548;-48
2022/05/11 13:07:42;;;;;;;7.40;4.40;;;26.20;45.70;;;;;;219461;1268;25365;-44
2022/05/11 13:12:56;;;;;;;8.20;3.90;;;26.20;45.70;;;;;;219675;1270;26099;-45
2022/05/11 13:18:06;;;;;;;7.20;3.80;;;26.30;46.10;;;;;;219773;1267;24293;-42
2022/05/11 13:23:33;;;;;;;13.80;4.10;;;26.20;45.10;;;;;;219785;1270;24286;-44
2022/05/11 13:28:42;;;;;;;6.60;3.70;;;26.20;45.00;;;;;;219795;1270;24459;-45
2022/05/11 13:33:46;;;;;;;12.60;4.00;;;26.20;44.40;;;;;;219840;1270;24268;-46
2022/05/11 13:38:57;;;;;;;5.10;3.50;;;26.20;44.50;;;;;;219862;1270;24272;-43
2022/05/11 13:44:07;;;;;;;8.50;4.20;;;26.20;44.00;;;;;;219943;1270;24294;-44
2022/05/11 13:49:39;;;;;;;12.50;3.70;;;26.20;44.00;;;;;;220044;1270;25537;-45
2022/05/11 13:54:58;;;;;;;6.10;3.80;;;26.20;44.50;;;;;;219998;1268;25333;-43
2022/05/11 14:00:28;;;;;;;14.20;3.90;;;26.20;44.20;;;;;;219774;1270;22719;-45
2022/05/11 14:05:32;;;;;;;14.10;4.20;;;26.10;44.20;;;;;;220228;1268;22684;-47
2022/05/11 14:10:36;;;;;;;8.80;4.60;;;26.20;44.40;;;;;;220109;1270;22719;-44
2022/05/11 14:15:40;;;;;;;7.90;3.90;;;26.20;44.90;;;;;;220240;1270;25423;-43
2022/05/11 14:20:47;;;;;;;6.30;3.90;;;26.10;45.30;;;;;;220040;1270;26276;-51
2022/05/11 14:25:51;;;;;;;9.30;4.20;;;26.20;44.90;;;;;;220265;1270;22567;-43
2022/05/11 14:31:00;;;;;;;7.50;4.30;;;26.10;44.10;;;;;;220385;1269;22843;-44
2022/05/11 14:36:07;;;;;;;8.10;4.20;;;26.10;43.70;;;;;;220313;1268;22765;-43
2022/05/11 14:41:14;;;;;;;9.00;4.20;;;26.10;44.30;;;;;;220508;1268;22559;-44
2022/05/11 14:46:24;;;;;;;6.60;4.00;;;26.10;44.10;;;;;;219990;1270;24464;-46
2022/05/11 14:51:28;;;;;;;9.20;4.70;;;26.10;43.90;;;;;;220147;1268;23954;-47
2022/05/11 14:56:37;;;;;;;8.00;4.00;;;26.10;44.70;;;;;;219981;1271;22852;-44
2022/05/11 15:01:58;;;;;;;5.70;4.10;;;26.20;43.70;;;;;;220178;1270;25303;-45
2022/05/11 15:07:21;;;;;;;9.80;4.50;;;26.20;44.40;;;;;;220455;1270;22659;-46
2022/05/11 15:18:16;;;;;;;9.20;4.40;;;26.10;44.20;;;;;;220612;1268;22561;-45
2022/05/11 15:23:20;;;;;;;9.70;4.50;;;26.20;44.20;;;;;;220491;1268;22602;-44
2022/05/11 15:28:24;;;;;;;7.80;4.80;;;26.20;44.30;;;;;;220377;1268;22846;-44
2022/05/11 15:33:49;;;;;;;9.20;4.50;;;26.20;44.90;;;;;;220472;1268;24293;-46
2022/05/11 15:38:55;;;;;;;7.60;4.40;;;26.20;44.60;;;;;;220116;1268;25442;-44
2022/05/11 15:44:05;;;;;;;8.60;4.50;;;26.20;44.80;;;;;;220150;1269;25240;-44
2022/05/11 15:49:12;;;;;;;8.00;3.90;;;26.10;44.80;;;;;;220067;1270;24308;-45
2022/05/11 15:54:32;;;;;;;9.60;4.20;;;26.20;44.50;;;;;;220186;1268;24429;-46
2022/05/11 15:59:52;;;;;;;11.00;4.60;;;26.20;43.90;;;;;;220150;1268;22754;-46
2022/05/11 16:05:02;;;;;;;7.90;4.40;;;26.20;44.40;;;;;;220465;1271;25078;-45
2022/05/11 16:10:10;;;;;;;9.80;4.60;;;26.20;42.90;;;;;;220521;1271;23290;-43
2022/05/11 16:15:16;;;;;;;8.50;4.70;;;26.20;42.90;;;;;;220450;1268;25295;-42
2022/05/11 16:20:21;;;;;;;13.00;4.70;;;26.10;42.80;;;;;;220884;1269;22589;-44
2022/05/11 16:25:37;;;;;;;10.40;4.20;;;26.10;42.50;;;;;;220180;1268;25349;-45
2022/05/11 16:30:46;;;;;;;14.50;4.90;;;26.10;42.60;;;;;;220535;1268;22547;-44
2022/05/11 16:35:51;;;;;;;5.80;4.50;;;26.10;43.00;;;;;;220302;1271;24224;-49
2022/05/11 16:40:55;;;;;;;9.10;4.30;;;26.30;42.60;;;;;;219974;1268;24389;-42
2022/05/11 16:45:59;;;;;;;9.20;5.40;;;26.20;44.30;;;;;;220040;1269;22557;-44
2022/05/11 16:51:04;;;;;;;13.70;6.20;;;26.10;46.30;;;;;;220179;1268;22673;-43
2022/05/11 16:56:08;;;;;;;13.20;5.00;;;26.10;47.70;;;;;;219661;1268;25388;-44
2022/05/11 17:01:20;;;;;;;12.50;5.40;;;26.00;47.00;;;;;;220061;1268;24325;-42
2022/05/11 17:06:36;;;;;;;8.80;5.30;;;26.10;47.30;;;;;;220077;1268;24713;-41
2022/05/11 17:11:48;;;;;;;11.40;4.80;;;26.10;47.10;;;;;;220323;1268;22553;-44
2022/05/11 17:16:52;;;;;;;9.10;5.10;;;26.00;46.90;;;;;;220434;1268;22575;-44
2022/05/11 17:21:57;;;;;;;10.90;5.50;;;26.10;47.20;;;;;;220473;1268;25245;-45
2022/05/11 17:27:02;;;;;;;9.40;5.20;;;26.10;47.30;;;;;;220246;1268;22544;-44
2022/05/11 17:32:07;;;;;;;9.90;4.50;;;26.10;47.40;;;;;;220132;1273;25256;-44
2022/05/11 17:37:11;;;;;;;13.60;4.70;;;26.10;47.30;;;;;;220133;1268;23936;-43
2022/05/11 17:42:14;;;;;;;8.50;4.40;;;26.10;47.80;;;;;;220146;1268;24282;-44
2022/05/11 17:47:19;;;;;;;11.00;4.80;;;26.10;47.80;;;;;;219999;1268;24367;-45
2022/05/11 17:52:23;;;;;;;13.90;5.00;;;26.10;47.80;;;;;;220370;1268;25235;-47
2022/05/11 17:57:27;;;;;;;13.40;5.00;;;26.10;47.30;;;;;;220151;1268;22532;-43
2022/05/11 18:02:30;;;;;;;13.20;5.20;;;26.10;47.60;;;;;;220200;1268;22654;-43
2022/05/11 18:07:37;;;;;;;17.40;5.50;;;26.00;47.50;;;;;;220078;1268;22684;-44
2022/05/11 18:12:41;;;;;;;12.20;5.20;;;26.10;47.70;;;;;;220092;1268;23477;-43
2022/05/11 18:17:45;;;;;;;8.00;5.10;;;26.20;49.40;;;;;;220438;1268;25257;-41
2022/05/11 18:22:53;;;;;;;6.90;4.70;;;26.20;49.40;;;;;;220430;1268;25321;-44
2022/05/11 18:27:59;;;;;;;14.40;5.40;;;26.20;49.40;;;;;;220451;1268;24428;-45
2022/05/11 18:33:04;;;;;;;13.10;5.60;;;26.20;49.70;;;;;;220115;1270;22547;-43
2022/05/11 18:38:08;;;;;;;9.00;5.60;;;26.20;50.00;;;;;;220126;1268;25355;-46
2022/05/11 18:43:11;;;;;;;14.30;6.00;;;26.20;50.30;;;;;;220309;1269;25198;-45
2022/05/11 18:48:55;;;;;;;8.70;5.50;;;26.20;50.20;;;;;;220028;1270;22557;-44
2022/05/11 18:54:27;;;;;;;13.40;5.60;;;26.20;50.10;;;;;;220114;1268;22557;-42
2022/05/11 18:59:39;;;;;;;13.70;6.30;;;26.20;50.40;;;;;;220066;1270;22524;-43
2022/05/11 19:04:45;;;;;;;11.30;7.00;;;26.10;50.50;;;;;;220179;1268;22727;-43
2022/05/11 19:09:50;;;;;;;15.90;6.70;;;26.10;50.80;;;;;;220486;1268;24218;-42
2022/05/11 19:14:54;;;;;;;17.00;7.00;;;26.40;50.30;;;;;;220200;1268;22534;-45
2022/05/11 19:20:00;;;;;;;16.40;7.30;;;26.40;50.20;;;;;;219980;1267;373747;-43
2022/05/11 19:25:04;;;;;;;24.90;7.20;;;26.40;50.10;;;;;;219990;1268;22538;-41
2022/05/11 19:30:09;;;;;;;16.50;7.00;;;26.20;50.20;;;;;;220447;1268;22575;-44
2022/05/11 19:35:14;;;;;;;16.90;7.50;;;26.10;49.90;;;;;;220020;1267;25474;-42
2022/05/11 19:40:18;;;;;;;16.60;7.60;;;26.00;50.30;;;;;;220230;1268;22992;-43
2022/05/11 19:45:21;;;;;;;14.80;7.00;;;25.90;49.80;;;;;;220071;1268;22718;-49
2022/05/11 19:50:31;;;;;;;18.20;8.00;;;25.90;50.10;;;;;;220135;1268;22547;-43
2022/05/11 19:55:37;;;;;;;21.10;8.60;;;25.90;50.20;;;;;;220446;1268;22568;-42
2022/05/11 20:00:42;;;;;;;26.20;7.90;;;25.90;50.30;;;;;;220180;1268;25249;-43
2022/05/11 20:05:53;;;;;;;17.30;8.20;;;26.00;50.30;;;;;;220293;1268;24452;-44
2022/05/11 20:10:59;;;;;;;17.70;7.50;;;25.90;50.20;;;;;;220515;1270;22584;-48
2022/05/11 20:16:04;;;;;;;17.30;7.20;;;25.90;50.40;;;;;;220428;1268;22548;-45
2022/05/11 20:21:11;;;;;;;14.10;6.80;;;25.90;50.80;;;;;;220275;1270;22558;-47
2022/05/11 20:26:17;;;;;;;14.90;7.00;;;25.80;50.80;;;;;;220218;1267;22551;-44
2022/05/11 20:36:48;;;;;;;18.00;7.60;;;25.80;51.10;;;;;;220440;1267;24285;-45
2022/05/11 20:41:54;;;;;;;14.80;7.80;;;25.80;51.60;;;;;;220323;1267;24268;-48
2022/05/11 20:47:01;;;;;;;13.00;7.50;;;25.80;54.00;;;;;;220280;1270;25303;-43
2022/05/11 20:52:06;;;;;;;16.80;7.60;;;25.80;53.20;;;;;;220312;1270;24310;-46
2022/05/11 20:57:10;;;;;;;19.90;7.60;;;25.70;52.10;;;;;;220177;1268;22614;-43
2022/05/11 21:02:16;;;;;;;17.60;8.40;;;25.70;54.00;;;;;;220538;1268;22538;-45
2022/05/11 21:07:23;;;;;;;18.90;7.70;;;25.70;54.70;;;;;;220653;1267;22533;-42
2022/05/11 21:12:26;;;;;;;11.20;6.50;;;25.70;54.00;;;;;;219985;1268;25310;-43
2022/05/11 21:17:30;;;;;;;12.00;6.50;;;25.70;53.40;;;;;;220609;1268;24281;-44
2022/05/11 21:22:37;;;;;;;14.50;6.60;;;25.70;52.60;;;;;;219983;1270;24306;-42
2022/05/11 21:27:49;;;;;;;10.80;6.30;;;25.70;52.30;;;;;;220034;1268;24202;-43
2022/05/11 21:32:52;;;;;;;17.10;6.80;;;25.70;52.40;;;;;;220375;1268;25402;-44
2022/05/11 21:37:56;;;;;;;13.50;6.90;;;25.70;52.50;;;;;;220547;1267;22683;-45
2022/05/11 21:43:00;;;;;;;12.50;6.50;;;25.70;52.00;;;;;;220397;1267;24351;-45
2022/05/11 21:48:06;;;;;;;11.40;5.80;;;25.60;52.80;;;;;;220160;1268;22765;-41
2022/05/11 21:53:19;;;;;;;11.80;5.70;;;25.60;53.20;;;;;;220797;1268;24122;-42
2022/05/11 21:58:22;;;;;;;9.60;6.70;;;25.60;53.20;;;;;;220414;1268;25428;-43
2022/05/11 22:03:28;;;;;;;11.80;5.90;;;25.60;52.70;;;;;;220519;1268;22992;-43
2022/05/11 22:08:35;;;;;;;11.30;6.50;;;25.60;52.80;;;;;;220610;1268;23903;-43
2022/05/11 22:13:45;;;;;;;11.60;6.10;;;25.60;53.00;;;;;;220158;1271;22539;-43
2022/05/11 22:18:52;;;;;;;12.80;6.70;;;25.60;53.20;;;;;;220589;1270;22576;-43
2022/05/11 22:23:56;;;;;;;12.10;6.10;;;25.50;52.80;;;;;;220777;1268;22529;-43
2022/05/11 22:29:02;;;;;;;12.10;5.80;;;25.50;53.00;;;;;;220286;1268;22543;-44
2022/05/11 22:34:13;;;;;;;7.80;5.50;;;25.50;53.30;;;;;;220117;1268;24756;-43
2022/05/11 22:39:18;;;;;;;9.10;5.60;;;25.60;53.30;;;;;;220208;1268;22558;-42
2022/05/11 22:44:21;;;;;;;12.70;6.20;;;25.60;53.70;;;;;;220398;1267;24313;-45
2022/05/11 22:49:26;;;;;;;13.00;6.10;;;25.60;54.30;;;;;;220467;1270;22604;-43
2022/05/11 22:54:30;;;;;;;8.30;5.40;;;25.60;54.00;;;;;;220711;1268;25263;-43
2022/05/11 22:59:34;;;;;;;12.10;6.30;;;25.60;54.00;;;;;;220143;1268;22545;-43
2022/05/11 23:04:38;;;;;;;10.00;5.40;;;25.50;54.00;;;;;;220382;1269;24408;-43
2022/05/11 23:09:41;;;;;;;9.80;6.10;;;25.60;54.50;;;;;;220128;1267;22544;-43
2022/05/11 23:14:45;;;;;;;8.30;5.50;;;25.60;54.20;;;;;;220100;1267;25312;-44
2022/05/11 23:19:50;;;;;;;7.80;5.30;;;25.50;54.70;;;;;;219817;1270;25313;-43
2022/05/11 23:24:55;;;;;;;9.60;5.80;;;25.50;54.10;;;;;;220327;1267;24402;-45
2022/05/11 23:29:59;;;;;;;12.00;5.30;;;25.50;54.30;;;;;;220173;1267;25252;-43
2022/05/11 23:35:03;;;;;;;10.10;5.60;;;25.50;54.30;;;;;;220235;1270;25252;-42
2022/05/11 23:40:08;;;;;;;7.20;4.60;;;25.40;54.40;;;;;;220509;1270;26172;-43
2022/05/11 23:45:17;;;;;;;8.10;4.70;;;25.50;54.60;;;;;;220642;1270;24352;-43
2022/05/11 23:50:23;;;;;;;7.90;5.00;;;25.40;54.60;;;;;;220111;1269;24317;-45
2022/05/11 23:55:26;;;;;;;8.70;5.00;;;25.40;54.40;;;;;;220466;1270;25242;-45
